createdAt,value
2023-02-09T00:02:19.348Z,53.60
2023-02-09T00:04:47.587Z,52.00
2023-02-09T00:07:15.644Z,52.00
2023-02-09T00:09:45.661Z,50.90
2023-02-09T00:12:32.571Z,52.10
2023-02-09T00:22:36.636Z,39.80
2023-02-09T00:25:05.019Z,41.70
2023-02-09T00:27:35.856Z,39.70
2023-02-09T00:30:05.556Z,36.00
2023-02-09T00:32:33.658Z,34.40
2023-02-09T00:35:01.698Z,33.60
2023-02-09T00:37:29.815Z,34.00
2023-02-09T00:39:57.848Z,32.40
2023-02-09T00:42:25.806Z,36.20
2023-02-09T00:44:53.809Z,36.60
2023-02-09T00:47:21.745Z,34.20
2023-02-09T00:49:49.712Z,35.50
2023-02-09T00:52:17.887Z,33.10
2023-02-09T00:54:45.957Z,31.00
2023-02-09T00:57:14.028Z,30.20
2023-02-09T00:59:42.716Z,31.00
2023-02-09T01:02:10.784Z,31.80
2023-02-09T01:04:40.366Z,31.00
2023-02-09T01:07:09.175Z,30.30
2023-02-09T01:09:37.659Z,30.90
2023-02-09T01:12:08.626Z,31.90
2023-02-09T01:14:39.339Z,30.00
2023-02-09T01:17:08.003Z,30.30
2023-02-09T01:19:36.707Z,29.80
2023-02-09T01:22:05.282Z,31.00
2023-02-09T01:24:33.660Z,32.60
2023-02-09T01:27:02.860Z,33.00
2023-02-09T01:29:32.151Z,34.10
2023-02-09T01:32:00.532Z,34.10
2023-02-09T01:34:28.709Z,32.30
2023-02-09T01:36:56.983Z,29.80
2023-02-09T01:39:24.954Z,28.00
2023-02-09T01:41:52.925Z,26.50
2023-02-09T01:44:21.714Z,27.60
2023-02-09T01:46:50.018Z,26.90
2023-02-09T01:49:21.909Z,29.00
2023-02-09T01:52:07.757Z,26.60
2023-02-09T01:54:41.131Z,26.90
2023-02-09T01:57:17.189Z,28.50
2023-02-09T01:59:50.889Z,30.40
2023-02-09T02:02:20.367Z,30.60
2023-02-09T02:04:51.549Z,32.90
2023-02-09T02:07:27.698Z,31.90
2023-02-09T02:09:56.386Z,31.40
2023-02-09T02:12:25.297Z,38.40
2023-02-09T02:14:53.446Z,38.80
2023-02-09T02:17:59.005Z,43.30
2023-02-09T02:21:05.872Z,44.90
2023-02-09T02:23:37.120Z,43.70
2023-02-09T02:26:17.686Z,45.10
2023-02-09T02:29:31.342Z,48.30
2023-02-09T02:32:21.925Z,46.30
2023-02-09T02:35:08.625Z,49.60
2023-02-09T02:38:00.061Z,49.10
2023-02-09T02:40:55.088Z,45.50
2023-02-09T02:43:36.856Z,44.40
2023-02-09T02:46:11.166Z,42.10
2023-02-09T02:49:07.911Z,42.90
2023-02-09T02:51:43.464Z,39.60
2023-02-09T02:54:18.429Z,40.90
2023-02-09T02:56:55.107Z,38.20
2023-02-09T03:02:06.569Z,35.50
2023-02-09T03:04:37.641Z,35.40
2023-02-09T03:07:07.254Z,37.10
2023-02-09T03:09:35.482Z,34.10
2023-02-09T03:16:41.468Z,27.80
2023-02-09T03:19:39.472Z,25.20
2023-02-09T03:22:30.574Z,27.00
2023-02-09T03:25:12.637Z,23.70
2023-02-09T03:27:54.379Z,25.20
2023-02-09T03:30:23.831Z,23.40
2023-02-09T03:32:56.351Z,23.10
2023-02-09T03:35:28.023Z,22.70
2023-02-09T03:37:55.925Z,23.80
2023-02-09T03:40:23.914Z,24.50
2023-02-09T03:42:51.903Z,24.50
2023-02-09T03:45:19.733Z,27.60
2023-02-09T03:47:48.159Z,27.40
2023-02-09T03:50:16.504Z,28.20
2023-02-09T03:52:44.471Z,28.90
2023-02-09T03:55:12.444Z,28.70
2023-02-09T03:57:40.392Z,28.70
2023-02-09T04:00:09.872Z,28.60
2023-02-09T04:02:43.423Z,28.00
2023-02-09T04:05:12.815Z,29.80
2023-02-09T04:07:41.570Z,29.80
2023-02-09T04:10:10.544Z,29.50
2023-02-09T04:12:38.557Z,30.70
2023-02-09T04:15:07.248Z,30.20
2023-02-09T04:17:35.120Z,30.40
2023-02-09T04:20:03.612Z,29.50
2023-02-09T04:22:31.423Z,30.10
2023-02-09T04:24:59.328Z,29.70
2023-02-09T04:27:28.512Z,28.20
2023-02-09T04:29:56.497Z,30.60
2023-02-09T04:32:24.470Z,30.50
2023-02-09T04:34:52.427Z,31.20
2023-02-09T04:37:20.355Z,30.20
2023-02-09T04:39:48.476Z,30.60
2023-02-09T04:42:16.340Z,29.90
2023-02-09T04:44:44.210Z,29.50
2023-02-09T04:47:12.164Z,29.10
2023-02-09T04:49:40.861Z,29.10
2023-02-09T04:52:08.925Z,30.00
2023-02-09T04:54:36.845Z,27.40
2023-02-09T04:57:23.503Z,29.60
2023-02-09T04:59:51.348Z,27.10
2023-02-09T05:02:19.241Z,26.10
2023-02-09T05:04:47.372Z,29.00
2023-02-09T05:07:15.279Z,28.30
2023-02-09T05:09:43.247Z,30.00
2023-02-09T05:12:11.254Z,30.20
2023-02-09T05:14:39.181Z,30.90
2023-02-09T05:17:07.150Z,31.30
2023-02-09T05:19:35.065Z,30.60
2023-02-09T05:22:03.194Z,30.60
2023-02-09T05:24:31.569Z,31.30
2023-02-09T05:26:59.635Z,27.70
2023-02-09T05:29:27.715Z,28.30
2023-02-09T05:31:55.972Z,30.10
2023-02-09T05:34:23.951Z,30.50
2023-02-09T05:36:52.053Z,30.70
2023-02-09T05:39:19.937Z,31.40
2023-02-09T05:42:06.371Z,30.40
2023-02-09T05:47:02.013Z,28.10
2023-02-09T05:49:29.992Z,29.80
2023-02-09T05:51:57.883Z,29.40
2023-02-09T05:54:26.107Z,28.40
2023-02-09T05:56:54.109Z,27.20
2023-02-09T05:59:22.069Z,23.20
2023-02-09T06:01:50.853Z,24.80
2023-02-09T06:04:18.747Z,25.40
2023-02-09T06:06:46.622Z,25.40
2023-02-09T06:09:14.730Z,26.90
2023-02-09T06:11:42.589Z,26.70
2023-02-09T06:14:10.782Z,26.60
2023-02-09T06:16:40.826Z,28.40
2023-02-09T06:19:21.109Z,27.70
2023-02-09T06:21:49.045Z,27.60
2023-02-09T06:24:17.420Z,26.50
2023-02-09T06:26:45.332Z,26.90
2023-02-09T06:29:13.257Z,26.40
2023-02-09T06:31:42.175Z,26.70
2023-02-09T06:34:10.265Z,27.90
2023-02-09T06:36:38.178Z,28.00
2023-02-09T06:39:10.453Z,26.60
2023-02-09T06:41:38.437Z,27.80
2023-02-09T06:44:06.492Z,28.20
2023-02-09T06:46:34.511Z,28.80
2023-02-09T06:49:02.465Z,29.70
2023-02-09T06:51:30.711Z,29.70
2023-02-09T06:53:58.748Z,30.40
2023-02-09T06:56:26.657Z,32.20
2023-02-09T06:58:56.757Z,33.00
2023-02-09T07:01:24.776Z,33.70
2023-02-09T07:03:52.671Z,35.10
2023-02-09T07:06:21.514Z,33.40
2023-02-09T07:08:50.384Z,33.20
2023-02-09T07:11:19.538Z,32.70
2023-02-09T07:13:48.392Z,33.20
2023-02-09T07:16:16.381Z,32.00
2023-02-09T07:18:44.649Z,31.60
2023-02-09T07:21:20.065Z,32.10
2023-02-09T07:23:49.344Z,30.00
2023-02-09T07:26:18.248Z,29.30
2023-02-09T07:28:46.739Z,26.70
2023-02-09T07:31:16.986Z,25.00
2023-02-09T07:33:46.147Z,25.60
2023-02-09T07:36:16.570Z,24.00
2023-02-09T07:38:45.472Z,24.50
2023-02-09T07:41:20.447Z,26.80
2023-02-09T07:43:48.580Z,24.70
2023-02-09T07:46:18.965Z,26.80
2023-02-09T07:48:47.871Z,27.20
2023-02-09T07:51:25.213Z,26.10
2023-02-09T07:53:54.253Z,29.20
2023-02-09T07:56:23.351Z,26.40
2023-02-09T07:58:52.749Z,29.00
2023-02-09T08:01:21.053Z,28.90
2023-02-09T08:03:50.719Z,29.50
2023-02-09T08:06:43.007Z,30.90
2023-02-09T08:09:16.548Z,29.10
2023-02-09T08:11:49.987Z,29.60
2023-02-09T08:14:23.212Z,28.80
2023-02-09T08:17:15.198Z,29.70
2023-02-09T08:19:43.996Z,31.10
2023-02-09T08:22:12.058Z,31.10
2023-02-09T08:24:41.057Z,27.70
2023-02-09T08:27:09.012Z,29.30
2023-02-09T08:29:36.983Z,27.70
2023-02-09T08:32:05.118Z,27.10
2023-02-09T08:34:33.242Z,27.00
2023-02-09T08:37:01.068Z,26.60
2023-02-09T08:39:29.051Z,27.30
2023-02-09T08:41:56.873Z,26.70
2023-02-09T08:44:24.751Z,23.90
2023-02-09T08:46:52.855Z,24.10
2023-02-09T08:49:20.968Z,24.80
2023-02-09T08:51:48.907Z,24.10
2023-02-09T08:54:17.027Z,25.30
2023-02-09T08:56:45.051Z,27.00
2023-02-09T08:59:12.878Z,25.80
2023-02-09T09:01:40.759Z,26.30
2023-02-09T09:04:08.781Z,26.50
2023-02-09T09:06:37.049Z,25.40
2023-02-09T09:09:05.101Z,26.10
2023-02-09T09:11:32.998Z,27.10
2023-02-09T09:14:00.940Z,27.50
2023-02-09T09:16:28.846Z,26.40
2023-02-09T09:18:57.024Z,25.80
2023-02-09T09:21:25.149Z,25.60
2023-02-09T09:23:52.957Z,26.20
2023-02-09T09:26:21.415Z,23.70
2023-02-09T09:28:51.217Z,24.70
2023-02-09T09:31:19.870Z,23.70
2023-02-09T09:33:48.070Z,22.50
2023-02-09T09:36:16.100Z,24.80
2023-02-09T09:38:44.102Z,23.10
2023-02-09T09:41:35.954Z,24.70
2023-02-09T09:44:12.624Z,26.50
2023-02-09T09:49:31.612Z,25.20
2023-02-09T09:52:24.498Z,23.40
2023-02-09T09:54:52.607Z,23.30
2023-02-09T09:57:25.860Z,25.40
2023-02-09T09:59:55.290Z,25.00
2023-02-09T10:02:30.799Z,23.80
2023-02-09T10:05:27.181Z,23.00
2023-02-09T10:08:01.399Z,21.90
2023-02-09T10:11:00.513Z,21.90
2023-02-09T10:14:04.115Z,21.10
2023-02-09T10:16:34.746Z,20.70
2023-02-09T10:19:18.748Z,20.50
2023-02-09T10:21:48.904Z,22.50
2023-02-09T10:24:31.660Z,22.50
2023-02-09T10:27:30.186Z,21.00
2023-02-09T10:30:20.745Z,22.10
2023-02-09T10:32:48.961Z,21.00
2023-02-09T10:35:43.444Z,23.30
2023-02-09T10:38:21.387Z,21.10
2023-02-09T10:40:50.213Z,21.20
2023-02-09T10:43:25.246Z,21.40
2023-02-09T10:45:59.372Z,20.30
2023-02-09T10:48:28.901Z,21.20
2023-02-09T10:51:05.471Z,22.30
2023-02-09T10:53:56.170Z,20.20
2023-02-09T10:56:48.569Z,19.90
2023-02-09T10:59:18.109Z,21.40
2023-02-09T11:02:02.684Z,19.70
2023-02-09T11:04:38.871Z,20.10
2023-02-09T11:07:18.253Z,18.30
2023-02-09T11:10:05.306Z,20.00
2023-02-09T11:12:33.269Z,20.90
2023-02-09T11:15:01.648Z,22.00
2023-02-09T11:17:40.383Z,21.60
2023-02-09T11:20:26.859Z,22.70
2023-02-09T11:26:01.837Z,20.60
2023-02-09T11:28:39.839Z,21.60
2023-02-09T11:31:29.853Z,22.30
2023-02-09T11:34:07.108Z,22.10
2023-02-09T11:36:53.354Z,22.20
2023-02-09T11:39:43.674Z,22.60
2023-02-09T11:42:40.867Z,21.30
2023-02-09T11:45:14.516Z,21.40
2023-02-09T11:47:57.692Z,22.30
2023-02-09T11:50:51.462Z,23.20
2023-02-09T11:53:40.842Z,22.30
2023-02-09T11:56:12.300Z,22.40
2023-02-09T11:58:57.193Z,22.00
2023-02-09T12:01:46.688Z,22.40
2023-02-09T12:05:00.572Z,20.90
2023-02-09T12:07:40.463Z,17.50
2023-02-09T12:10:32.838Z,18.50
2023-02-09T12:13:50.515Z,18.10
2023-02-09T12:16:24.780Z,19.80
2023-02-09T12:18:55.649Z,18.60
2023-02-09T12:21:38.494Z,18.80
2023-02-09T12:24:27.825Z,19.10
2023-02-09T12:26:56.362Z,17.80
2023-02-09T12:29:30.323Z,18.90
2023-02-09T12:32:04.375Z,17.80
2023-02-09T12:34:50.852Z,17.00
2023-02-09T12:37:20.351Z,17.70
2023-02-09T12:40:06.890Z,16.30
2023-02-09T12:45:37.496Z,12.70
2023-02-09T12:48:08.533Z,12.70
2023-02-09T12:50:42.402Z,10.70
2023-02-09T12:53:22.905Z,9.90
2023-02-09T12:56:12.678Z,10.00
2023-02-09T12:58:43.784Z,11.30
2023-02-09T13:01:14.433Z,11.70
2023-02-09T13:03:56.138Z,12.70
2023-02-09T13:06:36.320Z,11.50
2023-02-09T13:09:10.727Z,12.80
2023-02-09T13:11:51.072Z,13.60
2023-02-09T13:14:22.390Z,11.40
2023-02-09T13:17:08.688Z,12.40
2023-02-09T13:19:57.959Z,10.90
2023-02-09T13:22:47.839Z,10.50
2023-02-09T13:25:27.150Z,10.70
2023-02-09T13:27:54.981Z,9.60
2023-02-09T13:30:31.655Z,9.60
2023-02-09T13:33:31.945Z,9.20
2023-02-09T13:36:06.931Z,9.00
2023-02-09T13:38:37.101Z,8.80
2023-02-09T13:41:07.749Z,8.90
2023-02-09T13:43:39.277Z,8.60
2023-02-09T13:46:07.260Z,9.00
2023-02-09T13:48:38.240Z,8.80
2023-02-09T13:51:19.065Z,8.30
2023-02-09T13:54:02.334Z,8.90
2023-02-09T13:56:32.675Z,9.10
2023-02-09T13:59:01.398Z,8.10
2023-02-09T14:01:33.053Z,8.40
2023-02-09T14:04:32.730Z,8.70
2023-02-09T14:07:08.623Z,8.10
2023-02-09T14:09:50.679Z,8.70
2023-02-09T14:12:45.851Z,8.60
2023-02-09T14:15:33.964Z,8.30
2023-02-09T14:18:01.925Z,8.70
2023-02-09T14:20:30.413Z,8.60
2023-02-09T14:23:00.721Z,8.90
2023-02-09T14:25:30.793Z,8.70
2023-02-09T14:27:59.096Z,8.60
2023-02-09T14:30:32.883Z,9.20
2023-02-09T14:33:03.533Z,9.30
2023-02-09T14:35:36.749Z,8.40
2023-02-09T14:38:04.865Z,9.00
2023-02-09T14:40:37.099Z,9.30
2023-02-09T14:43:11.145Z,9.20
2023-02-09T14:45:48.992Z,9.20
2023-02-09T14:48:19.017Z,9.00
2023-02-09T14:50:49.333Z,10.40
2023-02-09T14:53:18.916Z,10.60
2023-02-09T14:55:47.950Z,9.90
2023-02-09T14:58:42.238Z,10.30
2023-02-09T15:01:10.232Z,10.50
2023-02-09T15:03:38.512Z,10.00
2023-02-09T15:06:07.055Z,10.60
2023-02-09T15:08:39.040Z,11.50
2023-02-09T15:11:30.773Z,11.20
2023-02-09T15:14:03.924Z,10.50
2023-02-09T15:16:32.360Z,11.90
2023-02-09T15:19:00.309Z,11.70
2023-02-09T15:21:28.246Z,11.90
2023-02-09T15:23:56.150Z,10.90
2023-02-09T15:26:26.789Z,10.90
2023-02-09T15:28:54.819Z,12.40
2023-02-09T15:31:22.825Z,13.00
2023-02-09T15:33:50.723Z,13.50
2023-02-09T15:36:20.420Z,12.80
2023-02-09T15:38:48.440Z,11.90
2023-02-09T15:41:36.216Z,12.10
2023-02-09T15:44:40.743Z,11.40
2023-02-09T15:47:27.449Z,12.30
2023-02-09T15:49:55.241Z,12.90
2023-02-09T15:52:23.162Z,12.20
2023-02-09T15:54:52.800Z,13.80
2023-02-09T15:57:20.680Z,13.10
2023-02-09T15:59:51.615Z,15.90
2023-02-09T16:02:19.505Z,19.00
2023-02-09T16:04:47.957Z,16.50
2023-02-09T16:07:23.411Z,17.70
2023-02-09T16:09:51.895Z,17.40
2023-02-09T16:12:19.913Z,16.00
2023-02-09T16:14:47.806Z,19.60
2023-02-09T16:17:15.749Z,22.10
2023-02-09T16:19:45.888Z,25.60
2023-02-09T16:22:13.733Z,24.10
2023-02-09T16:24:45.677Z,22.60
2023-02-09T16:27:23.211Z,22.80
2023-02-09T16:29:51.170Z,26.30
2023-02-09T16:32:22.145Z,31.40
2023-02-09T16:34:51.301Z,31.10
2023-02-09T16:37:29.178Z,33.80
2023-02-09T16:40:01.695Z,31.20
2023-02-09T16:42:29.900Z,27.20
2023-02-09T16:44:57.916Z,26.00
2023-02-09T16:47:28.037Z,24.80
2023-02-09T16:50:02.695Z,25.30
2023-02-09T16:52:31.022Z,23.30
2023-02-09T16:55:01.443Z,20.70
2023-02-09T16:57:29.616Z,19.70
2023-02-09T16:59:58.113Z,21.40
2023-02-09T17:02:40.022Z,19.10
2023-02-09T17:05:25.734Z,18.90
2023-02-09T17:08:14.961Z,17.70
2023-02-09T17:10:43.236Z,18.60
2023-02-09T17:13:12.056Z,19.00
2023-02-09T17:15:44.082Z,18.50
2023-02-09T17:18:17.202Z,21.20
2023-02-09T17:20:49.925Z,20.30
2023-02-09T17:23:22.875Z,19.20
2023-02-09T17:25:55.063Z,21.30
2023-02-09T17:33:02.911Z,21.50
2023-02-09T17:36:03.600Z,20.10
2023-02-09T17:38:28.001Z,20.10
2023-02-09T17:40:58.184Z,20.20
2023-02-09T17:43:26.527Z,19.20
2023-02-09T17:45:54.978Z,18.60
2023-02-09T17:48:23.731Z,19.80
2023-02-09T17:50:53.017Z,19.00
2023-02-09T17:53:26.884Z,21.00
2023-02-09T17:55:58.033Z,20.60
2023-02-09T17:58:26.364Z,20.20
2023-02-09T18:00:55.980Z,21.50
2023-02-09T18:03:25.968Z,22.10
2023-02-09T18:06:01.667Z,24.00
2023-02-09T18:08:31.053Z,27.90
2023-02-09T18:10:59.106Z,27.50
2023-02-09T18:13:27.309Z,31.60
2023-02-09T18:15:55.509Z,25.80
2023-02-09T18:18:24.520Z,28.80
2023-02-09T18:20:52.594Z,26.80
2023-02-09T18:23:20.456Z,29.70
2023-02-09T18:25:49.805Z,29.50
2023-02-09T18:28:17.905Z,27.90
2023-02-09T18:30:45.990Z,25.10
2023-02-09T18:33:15.479Z,25.70
2023-02-09T18:35:47.052Z,24.80
2023-02-09T18:38:15.491Z,24.00
2023-02-09T18:40:43.629Z,23.00
2023-02-09T18:43:14.679Z,21.80
2023-02-09T18:45:42.906Z,21.80
2023-02-09T18:48:11.802Z,20.90
2023-02-09T18:50:40.309Z,21.10
2023-02-09T18:53:08.216Z,23.60
2023-02-09T18:55:36.397Z,22.10
2023-02-09T18:58:07.089Z,20.40
2023-02-09T19:00:35.319Z,21.00
2023-02-09T19:03:03.233Z,20.20
2023-02-09T19:05:34.940Z,19.80
2023-02-09T19:08:03.393Z,20.10
2023-02-09T19:10:33.164Z,20.60
2023-02-09T19:13:04.730Z,20.40
2023-02-09T19:15:34.959Z,20.80
2023-02-09T19:18:02.941Z,19.70
2023-02-09T19:20:34.035Z,20.80
2023-02-09T19:23:03.865Z,20.00
2023-02-09T19:25:31.852Z,20.40
2023-02-09T19:28:00.280Z,21.20
2023-02-09T19:30:28.874Z,21.40
2023-02-09T19:32:58.608Z,19.90
2023-02-09T19:35:26.580Z,20.40
2023-02-09T19:37:56.406Z,19.90
2023-02-09T19:40:41.308Z,20.40
2023-02-09T19:43:09.269Z,17.70
2023-02-09T19:45:37.449Z,19.90
2023-02-09T19:48:08.329Z,17.60
2023-02-09T19:50:37.079Z,18.10
2023-02-09T19:53:06.219Z,21.60
2023-02-09T19:55:34.314Z,22.60
2023-02-09T19:58:02.428Z,23.00
2023-02-09T20:00:31.826Z,24.20
2023-02-09T20:02:59.786Z,27.90
2023-02-09T20:05:28.097Z,26.10
2023-02-09T20:07:57.133Z,23.20
2023-02-09T20:10:25.109Z,24.30
2023-02-09T20:12:52.974Z,23.40
2023-02-09T20:15:21.258Z,23.40
2023-02-09T20:17:50.052Z,24.00
2023-02-09T20:20:18.101Z,23.40
2023-02-09T20:22:48.888Z,25.70
2023-02-09T20:25:17.636Z,23.60
2023-02-09T20:27:48.846Z,24.80
2023-02-09T20:30:17.589Z,25.00
2023-02-09T20:32:45.623Z,23.40
2023-02-09T20:35:13.585Z,23.80
2023-02-09T20:37:41.419Z,25.40
2023-02-09T20:40:11.385Z,23.10
2023-02-09T20:42:58.041Z,23.70
2023-02-09T20:45:44.704Z,33.20
2023-02-09T20:48:13.760Z,26.90
2023-02-09T20:50:42.094Z,24.40
2023-02-09T20:53:09.969Z,24.00
2023-02-09T20:55:38.150Z,23.90
2023-02-09T20:58:06.243Z,24.20
2023-02-09T21:00:34.390Z,24.60
2023-02-09T21:03:02.484Z,23.80
2023-02-09T21:05:31.673Z,22.80
2023-02-09T21:08:02.998Z,25.20
2023-02-09T21:10:35.726Z,25.20
2023-02-09T21:13:07.016Z,24.70
2023-02-09T21:15:39.952Z,25.10
2023-02-09T21:22:36.420Z,22.60
2023-02-09T21:25:04.453Z,20.90
2023-02-09T21:27:34.085Z,21.70
2023-02-09T21:30:03.039Z,20.30
2023-02-09T21:32:34.906Z,20.90
2023-02-09T21:35:04.313Z,18.50
2023-02-09T21:37:32.390Z,18.80
2023-02-09T21:40:03.034Z,20.30
2023-02-09T21:42:31.502Z,19.50
2023-02-09T21:45:01.115Z,22.00
2023-02-09T21:47:31.382Z,20.40
2023-02-09T21:50:00.269Z,20.60
2023-02-09T21:52:29.883Z,19.80
2023-02-09T21:54:57.885Z,20.00
2023-02-09T21:57:26.482Z,20.10
2023-02-09T21:59:59.100Z,19.40
2023-02-09T22:02:31.081Z,18.70
2023-02-09T22:05:03.118Z,18.70
2023-02-09T22:07:37.097Z,19.50
2023-02-09T22:10:08.119Z,19.00
2023-02-09T22:12:40.094Z,19.10
2023-02-09T22:15:12.167Z,18.70
2023-02-09T22:17:42.756Z,18.70
2023-02-09T22:20:14.089Z,18.70
2023-02-09T22:22:47.117Z,18.90
2023-02-09T22:25:19.143Z,18.80
2023-02-09T22:27:51.103Z,19.50
2023-02-09T22:30:23.154Z,18.50
2023-02-09T22:32:54.096Z,18.60
2023-02-09T22:35:25.138Z,17.40
2023-02-09T22:37:57.141Z,18.40
2023-02-09T22:40:28.131Z,17.20
2023-02-09T22:43:01.117Z,17.80
2023-02-09T22:45:32.117Z,18.10
2023-02-09T22:48:03.112Z,18.10
2023-02-09T22:50:36.138Z,16.90
2023-02-09T22:53:08.142Z,16.80
2023-02-09T22:55:39.131Z,17.90
2023-02-09T22:58:10.594Z,16.80
2023-02-09T23:08:21.945Z,17.00
2023-02-09T23:10:50.966Z,17.00
2023-02-09T23:13:18.873Z,17.40
2023-02-09T23:15:47.103Z,17.80
2023-02-09T23:18:15.136Z,17.10
2023-02-09T23:20:44.103Z,16.30
2023-02-09T23:23:12.056Z,17.10
2023-02-09T23:25:39.939Z,17.60
2023-02-09T23:28:07.775Z,17.00
2023-02-09T23:30:35.700Z,16.70
2023-02-09T23:33:03.626Z,16.80
2023-02-09T23:35:31.459Z,17.40
2023-02-09T23:37:59.386Z,18.20
2023-02-09T23:40:27.201Z,17.60
2023-02-09T23:42:55.038Z,16.60
2023-02-09T23:45:23.106Z,16.60
2023-02-09T23:47:51.080Z,15.70
2023-02-09T23:50:19.036Z,17.20
2023-02-09T23:52:46.854Z,17.40
2023-02-09T23:55:14.769Z,16.30
2023-02-09T23:57:42.604Z,16.90
